sensor_id;sensor_type;location;lat;lon;timestamp;temperature;humidity
43561;DHT22;32305;46.410;17.394;2023-04-03T00:00:10;22.00;36.00
43561;DHT22;32305;46.410;17.394;2023-04-03T00:02:37;22.00;36.00
43561;DHT22;32305;46.410;17.394;2023-04-03T00:05:05;22.00;35.90
43561;DHT22;32305;46.410;17.394;2023-04-03T00:07:32;22.00;35.90
43561;DHT22;32305;46.410;17.394;2023-04-03T00:09:59;22.00;35.90
43561;DHT22;32305;46.410;17.394;2023-04-03T00:12:26;22.00;35.90
43561;DHT22;32305;46.410;17.394;2023-04-03T00:14:56;22.00;35.90
43561;DHT22;32305;46.410;17.394;2023-04-03T00:17:23;22.00;35.90
43561;DHT22;32305;46.410;17.394;2023-04-03T00:19:50;22.00;35.90
43561;DHT22;32305;46.410;17.394;2023-04-03T00:22:17;22.00;35.90
43561;DHT22;32305;46.410;17.394;2023-04-03T00:24:44;22.00;35.90
43561;DHT22;32305;46.410;17.394;2023-04-03T00:27:11;22.00;35.90
43561;DHT22;32305;46.410;17.394;2023-04-03T00:29:38;22.00;35.90
43561;DHT22;32305;46.410;17.394;2023-04-03T00:32:05;22.00;35.90
43561;DHT22;32305;46.410;17.394;2023-04-03T00:34:33;21.90;35.90
43561;DHT22;32305;46.410;17.394;2023-04-03T00:37:00;21.90;35.90
43561;DHT22;32305;46.410;17.394;2023-04-03T00:39:27;22.00;35.90
43561;DHT22;32305;46.410;17.394;2023-04-03T00:41:54;21.90;35.90
43561;DHT22;32305;46.410;17.394;2023-04-03T00:47:12;21.90;35.90
43561;DHT22;32305;46.410;17.394;2023-04-03T00:49:40;21.90;35.90
43561;DHT22;32305;46.410;17.394;2023-04-03T00:52:15;21.90;35.90
43561;DHT22;32305;46.410;17.394;2023-04-03T00:54:44;21.90;35.90
43561;DHT22;32305;46.410;17.394;2023-04-03T00:57:12;21.90;35.80
43561;DHT22;32305;46.410;17.394;2023-04-03T00:59:44;21.90;35.80
43561;DHT22;32305;46.410;17.394;2023-04-03T01:02:12;21.90;35.80
43561;DHT22;32305;46.410;17.394;2023-04-03T01:04:41;21.90;35.70
43561;DHT22;32305;46.410;17.394;2023-04-03T01:07:20;21.90;35.80
43561;DHT22;32305;46.410;17.394;2023-04-03T01:09:52;21.90;35.70
43561;DHT22;32305;46.410;17.394;2023-04-03T01:12:23;21.90;35.70
43561;DHT22;32305;46.410;17.394;2023-04-03T01:14:53;21.90;35.70
43561;DHT22;32305;46.410;17.394;2023-04-03T01:17:31;21.90;35.70
43561;DHT22;32305;46.410;17.394;2023-04-03T01:20:40;21.90;35.60
43561;DHT22;32305;46.410;17.394;2023-04-03T01:23:21;21.80;35.60
43561;DHT22;32305;46.410;17.394;2023-04-03T01:25:56;21.80;35.50
43561;DHT22;32305;46.410;17.394;2023-04-03T01:28:27;21.80;35.50
43561;DHT22;32305;46.410;17.394;2023-04-03T01:31:28;21.80;35.50
43561;DHT22;32305;46.410;17.394;2023-04-03T01:33:58;21.80;35.50
43561;DHT22;32305;46.410;17.394;2023-04-03T01:36:29;21.80;35.50
43561;DHT22;32305;46.410;17.394;2023-04-03T01:38:58;21.80;35.50
43561;DHT22;32305;46.410;17.394;2023-04-03T01:41:27;21.80;35.50
43561;DHT22;32305;46.410;17.394;2023-04-03T01:43:54;21.80;35.40
43561;DHT22;32305;46.410;17.394;2023-04-03T01:46:22;21.80;35.40
43561;DHT22;32305;46.410;17.394;2023-04-03T01:48:49;21.80;35.40
43561;DHT22;32305;46.410;17.394;2023-04-03T01:51:17;21.80;35.40
43561;DHT22;32305;46.410;17.394;2023-04-03T01:53:44;21.80;35.40
43561;DHT22;32305;46.410;17.394;2023-04-03T01:56:11;21.80;35.40
43561;DHT22;32305;46.410;17.394;2023-04-03T01:58:38;21.80;35.40
43561;DHT22;32305;46.410;17.394;2023-04-03T02:01:05;21.80;35.40
43561;DHT22;32305;46.410;17.394;2023-04-03T02:03:33;21.80;35.40
43561;DHT22;32305;46.410;17.394;2023-04-03T02:06:01;21.80;35.40
43561;DHT22;32305;46.410;17.394;2023-04-03T02:08:28;21.80;35.30
43561;DHT22;32305;46.410;17.394;2023-04-03T02:10:55;21.80;35.30
43561;DHT22;32305;46.410;17.394;2023-04-03T02:13:22;21.80;35.30
43561;DHT22;32305;46.410;17.394;2023-04-03T02:15:49;21.80;35.30
43561;DHT22;32305;46.410;17.394;2023-04-03T02:18:16;21.80;35.30
43561;DHT22;32305;46.410;17.394;2023-04-03T02:20:44;21.80;35.20
43561;DHT22;32305;46.410;17.394;2023-04-03T02:23:11;21.80;35.30
43561;DHT22;32305;46.410;17.394;2023-04-03T02:25:38;21.80;35.20
43561;DHT22;32305;46.410;17.394;2023-04-03T02:28:05;21.90;35.20
43561;DHT22;32305;46.410;17.394;2023-04-03T02:30:33;21.80;35.20
43561;DHT22;32305;46.410;17.394;2023-04-03T02:33:00;21.80;35.20
43561;DHT22;32305;46.410;17.394;2023-04-03T02:35:28;21.80;35.20
43561;DHT22;32305;46.410;17.394;2023-04-03T02:37:55;21.80;35.20
43561;DHT22;32305;46.410;17.394;2023-04-03T02:40:22;21.80;35.20
43561;DHT22;32305;46.410;17.394;2023-04-03T02:42:49;21.80;35.20
43561;DHT22;32305;46.410;17.394;2023-04-03T02:45:16;21.80;35.30
43561;DHT22;32305;46.410;17.394;2023-04-03T02:47:43;21.80;35.20
43561;DHT22;32305;46.410;17.394;2023-04-03T02:50:10;21.80;35.20
43561;DHT22;32305;46.410;17.394;2023-04-03T02:52:37;21.80;35.20
43561;DHT22;32305;46.410;17.394;2023-04-03T02:55:05;21.80;35.20
43561;DHT22;32305;46.410;17.394;2023-04-03T02:57:32;21.80;35.20
43561;DHT22;32305;46.410;17.394;2023-04-03T02:59:59;21.80;35.20
43561;DHT22;32305;46.410;17.394;2023-04-03T03:02:26;21.80;35.20
43561;DHT22;32305;46.410;17.394;2023-04-03T03:04:54;21.80;35.20
43561;DHT22;32305;46.410;17.394;2023-04-03T03:07:21;21.80;35.20
43561;DHT22;32305;46.410;17.394;2023-04-03T03:09:49;21.80;35.20
43561;DHT22;32305;46.410;17.394;2023-04-03T03:12:16;21.80;35.20
43561;DHT22;32305;46.410;17.394;2023-04-03T03:14:48;21.80;35.20
43561;DHT22;32305;46.410;17.394;2023-04-03T03:17:16;21.80;35.20
43561;DHT22;32305;46.410;17.394;2023-04-03T03:19:43;21.80;35.10
43561;DHT22;32305;46.410;17.394;2023-04-03T03:22:10;21.80;35.10
43561;DHT22;32305;46.410;17.394;2023-04-03T03:24:37;21.70;35.10
43561;DHT22;32305;46.410;17.394;2023-04-03T03:27:04;21.80;35.10
43561;DHT22;32305;46.410;17.394;2023-04-03T03:29:32;21.80;35.20
43561;DHT22;32305;46.410;17.394;2023-04-03T03:31:59;21.80;35.20
43561;DHT22;32305;46.410;17.394;2023-04-03T03:34:26;21.70;35.10
43561;DHT22;32305;46.410;17.394;2023-04-03T03:36:53;21.70;35.10
43561;DHT22;32305;46.410;17.394;2023-04-03T03:39:20;21.70;35.10
43561;DHT22;32305;46.410;17.394;2023-04-03T03:41:48;21.70;35.10
43561;DHT22;32305;46.410;17.394;2023-04-03T03:44:16;21.70;35.10
43561;DHT22;32305;46.410;17.394;2023-04-03T03:46:43;21.70;35.10
43561;DHT22;32305;46.410;17.394;2023-04-03T03:49:10;21.70;35.10
43561;DHT22;32305;46.410;17.394;2023-04-03T03:51:38;21.70;35.10
43561;DHT22;32305;46.410;17.394;2023-04-03T03:54:06;21.70;35.10
43561;DHT22;32305;46.410;17.394;2023-04-03T03:56:33;21.70;35.10
43561;DHT22;32305;46.410;17.394;2023-04-03T03:59:01;21.70;35.00
43561;DHT22;32305;46.410;17.394;2023-04-03T04:01:28;21.70;35.00
43561;DHT22;32305;46.410;17.394;2023-04-03T04:03:55;21.70;35.10
43561;DHT22;32305;46.410;17.394;2023-04-03T04:06:23;21.70;35.10
43561;DHT22;32305;46.410;17.394;2023-04-03T04:08:50;21.70;35.10
43561;DHT22;32305;46.410;17.394;2023-04-03T04:11:17;21.70;35.10
43561;DHT22;32305;46.410;17.394;2023-04-03T04:13:44;21.70;35.10
43561;DHT22;32305;46.410;17.394;2023-04-03T04:16:11;21.80;35.10
43561;DHT22;32305;46.410;17.394;2023-04-03T04:18:38;21.70;35.10
43561;DHT22;32305;46.410;17.394;2023-04-03T04:21:05;21.70;35.00
43561;DHT22;32305;46.410;17.394;2023-04-03T04:23:32;21.70;35.00
43561;DHT22;32305;46.410;17.394;2023-04-03T04:25:59;21.80;35.60
43561;DHT22;32305;46.410;17.394;2023-04-03T04:28:26;21.80;35.10
43561;DHT22;32305;46.410;17.394;2023-04-03T04:30:53;21.80;35.10
43561;DHT22;32305;46.410;17.394;2023-04-03T04:33:21;21.80;35.10
43561;DHT22;32305;46.410;17.394;2023-04-03T04:35:48;21.80;35.00
43561;DHT22;32305;46.410;17.394;2023-04-03T04:38:15;21.80;35.00
43561;DHT22;32305;46.410;17.394;2023-04-03T04:40:43;21.70;34.60
43561;DHT22;32305;46.410;17.394;2023-04-03T04:43:10;21.70;34.50
43561;DHT22;32305;46.410;17.394;2023-04-03T04:45:41;21.70;34.50
43561;DHT22;32305;46.410;17.394;2023-04-03T04:48:08;21.70;34.50
43561;DHT22;32305;46.410;17.394;2023-04-03T04:50:36;21.70;34.50
43561;DHT22;32305;46.410;17.394;2023-04-03T04:53:03;21.70;34.50
43561;DHT22;32305;46.410;17.394;2023-04-03T04:55:31;21.70;34.50
43561;DHT22;32305;46.410;17.394;2023-04-03T04:57:58;21.70;34.50
43561;DHT22;32305;46.410;17.394;2023-04-03T05:00:25;21.70;35.00
43561;DHT22;32305;46.410;17.394;2023-04-03T05:02:52;21.70;34.40
43561;DHT22;32305;46.410;17.394;2023-04-03T05:05:19;21.70;34.30
43561;DHT22;32305;46.410;17.394;2023-04-03T05:07:46;21.80;34.30
43561;DHT22;32305;46.410;17.394;2023-04-03T05:10:13;21.80;34.20
43561;DHT22;32305;46.410;17.394;2023-04-03T05:12:40;21.80;34.00
43561;DHT22;32305;46.410;17.394;2023-04-03T05:15:08;21.80;33.90
43561;DHT22;32305;46.410;17.394;2023-04-03T05:17:35;21.90;33.80
43561;DHT22;32305;46.410;17.394;2023-04-03T05:20:04;22.00;33.80
43561;DHT22;32305;46.410;17.394;2023-04-03T05:22:34;22.00;33.80
43561;DHT22;32305;46.410;17.394;2023-04-03T05:25:01;22.00;32.00
43561;DHT22;32305;46.410;17.394;2023-04-03T05:27:28;22.00;32.90
43561;DHT22;32305;46.410;17.394;2023-04-03T05:29:56;22.00;33.20
43561;DHT22;32305;46.410;17.394;2023-04-03T05:32:24;22.00;33.30
43561;DHT22;32305;46.410;17.394;2023-04-03T05:34:52;22.10;33.40
43561;DHT22;32305;46.410;17.394;2023-04-03T05:37:20;22.20;33.50
43561;DHT22;32305;46.410;17.394;2023-04-03T05:39:47;22.20;33.50
43561;DHT22;32305;46.410;17.394;2023-04-03T05:42:15;22.30;33.50
43561;DHT22;32305;46.410;17.394;2023-04-03T05:44:43;22.30;33.80
43561;DHT22;32305;46.410;17.394;2023-04-03T05:47:13;22.40;34.20
43561;DHT22;32305;46.410;17.394;2023-04-03T05:49:40;22.40;34.30
43561;DHT22;32305;46.410;17.394;2023-04-03T05:52:31;22.50;34.30
43561;DHT22;32305;46.410;17.394;2023-04-03T05:55:00;22.50;34.40
43561;DHT22;32305;46.410;17.394;2023-04-03T05:57:27;22.60;34.50
43561;DHT22;32305;46.410;17.394;2023-04-03T05:59:55;22.60;34.40
43561;DHT22;32305;46.410;17.394;2023-04-03T06:02:23;22.60;34.00
43561;DHT22;32305;46.410;17.394;2023-04-03T06:04:51;22.70;33.80
43561;DHT22;32305;46.410;17.394;2023-04-03T06:07:21;22.70;33.70
43561;DHT22;32305;46.410;17.394;2023-04-03T06:09:50;22.80;33.60
43561;DHT22;32305;46.410;17.394;2023-04-03T06:12:18;22.90;33.70
43561;DHT22;32305;46.410;17.394;2023-04-03T06:14:45;22.90;33.60
43561;DHT22;32305;46.410;17.394;2023-04-03T06:17:14;23.00;33.60
43561;DHT22;32305;46.410;17.394;2023-04-03T06:19:42;23.00;33.40
43561;DHT22;32305;46.410;17.394;2023-04-03T06:22:09;23.00;33.40
43561;DHT22;32305;46.410;17.394;2023-04-03T06:24:37;23.10;33.40
43561;DHT22;32305;46.410;17.394;2023-04-03T06:27:04;23.20;33.30
43561;DHT22;32305;46.410;17.394;2023-04-03T06:29:32;23.20;33.50
43561;DHT22;32305;46.410;17.394;2023-04-03T06:31:59;23.30;33.70
43561;DHT22;32305;46.410;17.394;2023-04-03T06:34:26;23.30;33.70
43561;DHT22;32305;46.410;17.394;2023-04-03T06:36:53;23.40;33.70
43561;DHT22;32305;46.410;17.394;2023-04-03T06:39:22;23.40;33.70
43561;DHT22;32305;46.410;17.394;2023-04-03T06:41:50;23.50;33.80
43561;DHT22;32305;46.410;17.394;2023-04-03T06:44:17;23.60;33.80
43561;DHT22;32305;46.410;17.394;2023-04-03T06:46:45;23.60;33.70
43561;DHT22;32305;46.410;17.394;2023-04-03T06:49:13;23.60;34.20
43561;DHT22;32305;46.410;17.394;2023-04-03T06:51:41;23.70;33.60
43561;DHT22;32305;46.410;17.394;2023-04-03T06:54:09;23.70;33.40
43561;DHT22;32305;46.410;17.394;2023-04-03T06:56:36;23.70;33.30
43561;DHT22;32305;46.410;17.394;2023-04-03T06:59:03;23.80;33.30
43561;DHT22;32305;46.410;17.394;2023-04-03T07:01:31;23.90;33.30
43561;DHT22;32305;46.410;17.394;2023-04-03T07:03:59;23.90;33.10
43561;DHT22;32305;46.410;17.394;2023-04-03T07:06:26;23.90;33.10
43561;DHT22;32305;46.410;17.394;2023-04-03T07:08:55;23.90;33.10
43561;DHT22;32305;46.410;17.394;2023-04-03T07:11:22;24.00;33.10
43561;DHT22;32305;46.410;17.394;2023-04-03T07:13:50;24.00;33.00
43561;DHT22;32305;46.410;17.394;2023-04-03T07:16:17;24.10;33.00
43561;DHT22;32305;46.410;17.394;2023-04-03T07:18:46;24.10;32.80
43561;DHT22;32305;46.410;17.394;2023-04-03T07:21:13;24.10;32.70
43561;DHT22;32305;46.410;17.394;2023-04-03T07:23:40;24.20;32.70
43561;DHT22;32305;46.410;17.394;2023-04-03T07:26:08;24.30;32.70
43561;DHT22;32305;46.410;17.394;2023-04-03T07:28:35;24.30;32.80
43561;DHT22;32305;46.410;17.394;2023-04-03T07:31:06;24.30;32.60
43561;DHT22;32305;46.410;17.394;2023-04-03T07:33:36;24.40;32.60
43561;DHT22;32305;46.410;17.394;2023-04-03T07:36:05;24.40;32.60
43561;DHT22;32305;46.410;17.394;2023-04-03T07:38:34;24.50;32.60
43561;DHT22;32305;46.410;17.394;2023-04-03T07:41:03;24.50;33.10
43561;DHT22;32305;46.410;17.394;2023-04-03T07:43:30;24.60;32.40
43561;DHT22;32305;46.410;17.394;2023-04-03T07:45:57;24.60;32.40
43561;DHT22;32305;46.410;17.394;2023-04-03T07:48:25;24.70;32.30
43561;DHT22;32305;46.410;17.394;2023-04-03T07:50:53;24.70;32.30
43561;DHT22;32305;46.410;17.394;2023-04-03T07:53:20;24.80;32.30
43561;DHT22;32305;46.410;17.394;2023-04-03T07:55:48;24.80;32.10
43561;DHT22;32305;46.410;17.394;2023-04-03T07:58:17;24.80;32.10
43561;DHT22;32305;46.410;17.394;2023-04-03T08:00:46;24.90;32.00
43561;DHT22;32305;46.410;17.394;2023-04-03T08:03:13;24.90;32.00
43561;DHT22;32305;46.410;17.394;2023-04-03T08:05:42;24.90;32.10
43561;DHT22;32305;46.410;17.394;2023-04-03T08:08:12;25.00;32.10
43561;DHT22;32305;46.410;17.394;2023-04-03T08:10:39;24.90;31.70
43561;DHT22;32305;46.410;17.394;2023-04-03T08:13:08;25.00;31.80
43561;DHT22;32305;46.410;17.394;2023-04-03T08:15:35;25.00;31.90
43561;DHT22;32305;46.410;17.394;2023-04-03T08:18:03;25.00;31.90
43561;DHT22;32305;46.410;17.394;2023-04-03T08:20:31;25.00;31.90
43561;DHT22;32305;46.410;17.394;2023-04-03T08:22:58;25.00;31.80
43561;DHT22;32305;46.410;17.394;2023-04-03T08:25:26;25.00;31.70
43561;DHT22;32305;46.410;17.394;2023-04-03T08:27:53;25.00;31.70
43561;DHT22;32305;46.410;17.394;2023-04-03T08:30:20;25.00;31.70
43561;DHT22;32305;46.410;17.394;2023-04-03T08:32:47;25.00;31.50
43561;DHT22;32305;46.410;17.394;2023-04-03T08:35:15;25.00;31.50
43561;DHT22;32305;46.410;17.394;2023-04-03T08:37:42;25.00;31.50
43561;DHT22;32305;46.410;17.394;2023-04-03T08:40:15;25.00;31.40
43561;DHT22;32305;46.410;17.394;2023-04-03T08:45:56;25.00;31.10
43561;DHT22;32305;46.410;17.394;2023-04-03T08:48:33;25.00;31.00
43561;DHT22;32305;46.410;17.394;2023-04-03T08:51:14;25.00;30.90
43561;DHT22;32305;46.410;17.394;2023-04-03T08:53:45;25.10;30.90
43561;DHT22;32305;46.410;17.394;2023-04-03T08:56:17;25.10;30.70
43561;DHT22;32305;46.410;17.394;2023-04-03T08:58:50;25.10;30.70
43561;DHT22;32305;46.410;17.394;2023-04-03T09:01:38;25.10;30.70
43561;DHT22;32305;46.410;17.394;2023-04-03T09:04:13;25.10;30.60
43561;DHT22;32305;46.410;17.394;2023-04-03T09:06:44;25.20;30.60
43561;DHT22;32305;46.410;17.394;2023-04-03T09:09:35;25.20;30.30
43561;DHT22;32305;46.410;17.394;2023-04-03T09:12:26;25.30;30.40
43561;DHT22;32305;46.410;17.394;2023-04-03T09:15:10;25.30;30.30
43561;DHT22;32305;46.410;17.394;2023-04-03T09:17:57;25.40;30.40
43561;DHT22;32305;46.410;17.394;2023-04-03T09:20:49;25.40;30.20
43561;DHT22;32305;46.410;17.394;2023-04-03T09:23:39;25.50;29.90
43561;DHT22;32305;46.410;17.394;2023-04-03T09:26:16;25.50;30.00
43561;DHT22;32305;46.410;17.394;2023-04-03T09:28:45;25.60;30.00
43561;DHT22;32305;46.410;17.394;2023-04-03T09:31:25;25.60;30.00
43561;DHT22;32305;46.410;17.394;2023-04-03T09:33:57;25.70;30.10
43561;DHT22;32305;46.410;17.394;2023-04-03T09:36:40;25.70;30.00
43561;DHT22;32305;46.410;17.394;2023-04-03T09:39:13;25.70;29.90
43561;DHT22;32305;46.410;17.394;2023-04-03T09:41:42;25.70;29.90
43561;DHT22;32305;46.410;17.394;2023-04-03T09:44:27;25.70;29.80
43561;DHT22;32305;46.410;17.394;2023-04-03T09:46:55;25.80;29.80
43561;DHT22;32305;46.410;17.394;2023-04-03T09:49:22;25.80;29.60
43561;DHT22;32305;46.410;17.394;2023-04-03T09:51:49;25.90;29.80
43561;DHT22;32305;46.410;17.394;2023-04-03T09:54:33;25.90;29.80
43561;DHT22;32305;46.410;17.394;2023-04-03T09:57:12;25.90;29.70
43561;DHT22;32305;46.410;17.394;2023-04-03T09:59:57;26.00;29.60
43561;DHT22;32305;46.410;17.394;2023-04-03T10:02:35;26.00;29.50
43561;DHT22;32305;46.410;17.394;2023-04-03T10:05:26;26.00;29.30
43561;DHT22;32305;46.410;17.394;2023-04-03T10:08:20;26.10;29.10
43561;DHT22;32305;46.410;17.394;2023-04-03T10:11:06;26.10;29.10
43561;DHT22;32305;46.410;17.394;2023-04-03T10:13:35;26.10;28.90
43561;DHT22;32305;46.410;17.394;2023-04-03T10:16:20;26.10;28.80
43561;DHT22;32305;46.410;17.394;2023-04-03T10:19:23;26.10;28.90
43561;DHT22;32305;46.410;17.394;2023-04-03T10:21:59;26.10;28.80
43561;DHT22;32305;46.410;17.394;2023-04-03T10:27:39;26.10;28.50
43561;DHT22;32305;46.410;17.394;2023-04-03T10:30:29;26.10;28.70
43561;DHT22;32305;46.410;17.394;2023-04-03T10:33:20;26.10;28.70
43561;DHT22;32305;46.410;17.394;2023-04-03T10:36:18;26.10;28.60
43561;DHT22;32305;46.410;17.394;2023-04-03T10:39:13;26.00;26.90
43561;DHT22;32305;46.410;17.394;2023-04-03T10:42:04;25.80;27.50
43561;DHT22;32305;46.410;17.394;2023-04-03T10:45:08;25.80;27.90
43561;DHT22;32305;46.410;17.394;2023-04-03T10:47:58;25.90;28.40
43561;DHT22;32305;46.410;17.394;2023-04-03T10:50:51;25.90;28.40
43561;DHT22;32305;46.410;17.394;2023-04-03T10:53:37;25.90;28.30
43561;DHT22;32305;46.410;17.394;2023-04-03T10:56:35;26.00;28.50
43561;DHT22;32305;46.410;17.394;2023-04-03T10:59:18;26.00;28.50
43561;DHT22;32305;46.410;17.394;2023-04-03T11:01:57;26.00;28.50
43561;DHT22;32305;46.410;17.394;2023-04-03T11:04:28;26.00;28.50
43561;DHT22;32305;46.410;17.394;2023-04-03T11:07:02;26.10;28.50
43561;DHT22;32305;46.410;17.394;2023-04-03T11:09:35;26.10;28.50
43561;DHT22;32305;46.410;17.394;2023-04-03T11:12:11;26.10;28.50
43561;DHT22;32305;46.410;17.394;2023-04-03T11:14:41;26.10;28.40
43561;DHT22;32305;46.410;17.394;2023-04-03T11:17:26;26.10;28.50
43561;DHT22;32305;46.410;17.394;2023-04-03T11:20:16;26.10;28.50
43561;DHT22;32305;46.410;17.394;2023-04-03T11:22:51;26.10;28.50
43561;DHT22;32305;46.410;17.394;2023-04-03T11:25:23;26.10;28.50
43561;DHT22;32305;46.410;17.394;2023-04-03T11:27:59;26.20;28.60
43561;DHT22;32305;46.410;17.394;2023-04-03T11:30:41;26.20;28.60
43561;DHT22;32305;46.410;17.394;2023-04-03T11:36:29;26.20;28.40
43561;DHT22;32305;46.410;17.394;2023-04-03T11:39:33;26.20;28.50
43561;DHT22;32305;46.410;17.394;2023-04-03T11:42:34;26.20;28.50
43561;DHT22;32305;46.410;17.394;2023-04-03T11:45:35;26.10;28.50
43561;DHT22;32305;46.410;17.394;2023-04-03T11:51:38;26.10;28.50
43561;DHT22;32305;46.410;17.394;2023-04-03T11:57:43;26.10;28.60
43561;DHT22;32305;46.410;17.394;2023-04-03T12:00:46;26.10;28.40
43561;DHT22;32305;46.410;17.394;2023-04-03T12:03:35;26.20;28.60
43561;DHT22;32305;46.410;17.394;2023-04-03T12:06:42;26.20;28.50
43561;DHT22;32305;46.410;17.394;2023-04-03T12:09:29;26.20;28.10
43561;DHT22;32305;46.410;17.394;2023-04-03T12:12:00;26.20;28.20
43561;DHT22;32305;46.410;17.394;2023-04-03T12:14:29;26.20;28.10
43561;DHT22;32305;46.410;17.394;2023-04-03T12:16:57;26.20;28.20
43561;DHT22;32305;46.410;17.394;2023-04-03T12:19:29;26.20;28.10
43561;DHT22;32305;46.410;17.394;2023-04-03T12:22:18;26.20;26.30
43561;DHT22;32305;46.410;17.394;2023-04-03T12:24:49;26.10;26.70
43561;DHT22;32305;46.410;17.394;2023-04-03T12:27:38;25.90;26.90
43561;DHT22;32305;46.410;17.394;2023-04-03T12:30:28;25.90;27.20
43561;DHT22;32305;46.410;17.394;2023-04-03T12:33:17;25.90;27.30
43561;DHT22;32305;46.410;17.394;2023-04-03T12:36:07;26.00;27.30
43561;DHT22;32305;46.410;17.394;2023-04-03T12:38:54;26.10;27.70
43561;DHT22;32305;46.410;17.394;2023-04-03T12:41:41;26.10;27.90
43561;DHT22;32305;46.410;17.394;2023-04-03T12:47:29;26.10;27.60
43561;DHT22;32305;46.410;17.394;2023-04-03T12:50:00;26.20;27.80
43561;DHT22;32305;46.410;17.394;2023-04-03T12:52:38;26.20;28.40
43561;DHT22;32305;46.410;17.394;2023-04-03T12:55:15;26.20;28.10
43561;DHT22;32305;46.410;17.394;2023-04-03T12:57:43;26.30;28.10
43561;DHT22;32305;46.410;17.394;2023-04-03T13:00:32;26.30;28.10
43561;DHT22;32305;46.410;17.394;2023-04-03T13:03:03;26.40;28.00
43561;DHT22;32305;46.410;17.394;2023-04-03T13:05:32;26.40;28.10
43561;DHT22;32305;46.410;17.394;2023-04-03T13:08:10;26.50;28.30
43561;DHT22;32305;46.410;17.394;2023-04-03T13:11:03;26.50;27.80
43561;DHT22;32305;46.410;17.394;2023-04-03T13:13:31;26.50;27.80
43561;DHT22;32305;46.410;17.394;2023-04-03T13:15:59;26.50;27.80
43561;DHT22;32305;46.410;17.394;2023-04-03T13:18:34;26.60;28.10
43561;DHT22;32305;46.410;17.394;2023-04-03T13:21:06;26.60;27.90
43561;DHT22;32305;46.410;17.394;2023-04-03T13:23:36;26.60;28.00
43561;DHT22;32305;46.410;17.394;2023-04-03T13:26:06;26.60;27.90
43561;DHT22;32305;46.410;17.394;2023-04-03T13:28:34;26.60;27.80
43561;DHT22;32305;46.410;17.394;2023-04-03T13:31:19;26.70;27.80
43561;DHT22;32305;46.410;17.394;2023-04-03T13:34:02;26.60;27.80
43561;DHT22;32305;46.410;17.394;2023-04-03T13:36:33;26.70;27.70
43561;DHT22;32305;46.410;17.394;2023-04-03T13:39:19;26.70;27.60
43561;DHT22;32305;46.410;17.394;2023-04-03T13:41:51;26.70;27.60
43561;DHT22;32305;46.410;17.394;2023-04-03T13:44:35;26.70;27.70
43561;DHT22;32305;46.410;17.394;2023-04-03T13:47:19;26.70;27.60
43561;DHT22;32305;46.410;17.394;2023-04-03T13:50:16;26.70;27.60
43561;DHT22;32305;46.410;17.394;2023-04-03T13:52:54;26.70;27.40
43561;DHT22;32305;46.410;17.394;2023-04-03T13:55:29;26.70;27.30
43561;DHT22;32305;46.410;17.394;2023-04-03T13:58:02;26.70;27.40
43561;DHT22;32305;46.410;17.394;2023-04-03T14:00:38;26.70;27.70
43561;DHT22;32305;46.410;17.394;2023-04-03T14:03:19;26.60;27.60
43561;DHT22;32305;46.410;17.394;2023-04-03T14:05:48;26.60;27.70
43561;DHT22;32305;46.410;17.394;2023-04-03T14:08:15;26.60;27.80
43561;DHT22;32305;46.410;17.394;2023-04-03T14:10:43;26.60;27.80
43561;DHT22;32305;46.410;17.394;2023-04-03T14:13:13;26.60;27.80
43561;DHT22;32305;46.410;17.394;2023-04-03T14:15:41;26.50;27.60
43561;DHT22;32305;46.410;17.394;2023-04-03T14:18:12;26.50;27.70
43561;DHT22;32305;46.410;17.394;2023-04-03T14:20:39;26.50;27.80
43561;DHT22;32305;46.410;17.394;2023-04-03T14:23:06;26.40;27.80
43561;DHT22;32305;46.410;17.394;2023-04-03T14:25:34;26.40;27.80
43561;DHT22;32305;46.410;17.394;2023-04-03T14:28:17;26.30;27.90
43561;DHT22;32305;46.410;17.394;2023-04-03T14:30:46;26.30;28.10
43561;DHT22;32305;46.410;17.394;2023-04-03T14:33:16;26.30;28.20
43561;DHT22;32305;46.410;17.394;2023-04-03T14:35:43;26.30;28.40
43561;DHT22;32305;46.410;17.394;2023-04-03T14:38:22;26.20;28.30
43561;DHT22;32305;46.410;17.394;2023-04-03T14:40:50;26.20;28.40
43561;DHT22;32305;46.410;17.394;2023-04-03T14:43:18;26.20;28.60
43561;DHT22;32305;46.410;17.394;2023-04-03T14:45:47;26.10;28.60
43561;DHT22;32305;46.410;17.394;2023-04-03T14:48:22;26.10;28.80
43561;DHT22;32305;46.410;17.394;2023-04-03T14:50:50;26.00;28.90
43561;DHT22;32305;46.410;17.394;2023-04-03T14:53:32;26.00;29.00
43561;DHT22;32305;46.410;17.394;2023-04-03T14:56:13;25.90;28.90
43561;DHT22;32305;46.410;17.394;2023-04-03T14:58:40;25.90;29.10
43561;DHT22;32305;46.410;17.394;2023-04-03T15:01:10;25.80;29.20
43561;DHT22;32305;46.410;17.394;2023-04-03T15:03:37;25.80;29.40
43561;DHT22;32305;46.410;17.394;2023-04-03T15:06:05;25.70;29.60
43561;DHT22;32305;46.410;17.394;2023-04-03T15:08:32;25.70;29.60
43561;DHT22;32305;46.410;17.394;2023-04-03T15:10:59;25.60;29.70
43561;DHT22;32305;46.410;17.394;2023-04-03T15:13:27;25.50;29.60
43561;DHT22;32305;46.410;17.394;2023-04-03T15:15:54;25.50;29.90
43561;DHT22;32305;46.410;17.394;2023-04-03T15:18:27;25.40;30.00
43561;DHT22;32305;46.410;17.394;2023-04-03T15:20:56;25.40;30.20
43561;DHT22;32305;46.410;17.394;2023-04-03T15:23:24;25.30;30.40
43561;DHT22;32305;46.410;17.394;2023-04-03T15:25:53;25.30;30.80
43561;DHT22;32305;46.410;17.394;2023-04-03T15:28:37;25.20;30.80
43561;DHT22;32305;46.410;17.394;2023-04-03T15:31:05;25.20;31.00
43561;DHT22;32305;46.410;17.394;2023-04-03T15:33:33;25.10;31.00
43561;DHT22;32305;46.410;17.394;2023-04-03T15:36:01;25.10;31.20
43561;DHT22;32305;46.410;17.394;2023-04-03T15:38:33;25.10;31.10
43561;DHT22;32305;46.410;17.394;2023-04-03T15:41:00;25.00;30.90
43561;DHT22;32305;46.410;17.394;2023-04-03T15:43:28;25.00;30.80
43561;DHT22;32305;46.410;17.394;2023-04-03T15:45:58;25.00;30.80
43561;DHT22;32305;46.410;17.394;2023-04-03T15:48:29;24.90;30.70
43561;DHT22;32305;46.410;17.394;2023-04-03T15:50:57;24.90;30.80
43561;DHT22;32305;46.410;17.394;2023-04-03T15:53:25;24.90;30.80
43561;DHT22;32305;46.410;17.394;2023-04-03T15:55:52;24.80;30.80
43561;DHT22;32305;46.410;17.394;2023-04-03T15:58:19;24.80;31.00
43561;DHT22;32305;46.410;17.394;2023-04-03T16:00:46;24.70;31.20
43561;DHT22;32305;46.410;17.394;2023-04-03T16:03:19;24.70;31.40
43561;DHT22;32305;46.410;17.394;2023-04-03T16:05:47;24.60;31.40
43561;DHT22;32305;46.410;17.394;2023-04-03T16:08:14;24.60;31.50